createdAt,value
2022-11-24T00:04:29.782Z,-0.62
2022-11-24T00:09:31.495Z,-0.76
2022-11-24T00:14:33.591Z,-0.99
2022-11-24T00:19:35.492Z,-0.80
2022-11-24T00:24:37.208Z,-1.13
2022-11-24T00:29:39.175Z,-1.02
2022-11-24T00:34:42.046Z,-1.03
2022-11-24T00:39:43.742Z,-0.99
2022-11-24T00:44:45.433Z,-1.11
2022-11-24T00:49:47.151Z,-0.95
2022-11-24T00:54:48.926Z,-1.06
2022-11-24T00:59:50.652Z,-1.30
2022-11-24T01:04:52.356Z,-1.07
2022-11-24T01:09:54.077Z,-0.86
2022-11-24T01:14:55.848Z,-0.97
2022-11-24T01:19:57.539Z,-1.01
2022-11-24T01:24:59.302Z,-1.18
2022-11-24T01:30:01.092Z,-1.19
2022-11-24T01:35:06.911Z,-0.89
2022-11-24T01:40:09.442Z,-0.84
2022-11-24T01:45:32.393Z,-0.79
2022-11-24T01:50:35.900Z,-1.22
2022-11-24T01:55:39.794Z,-1.40
2022-11-24T02:00:45.320Z,-1.34
2022-11-24T02:06:12.263Z,-1.54
2022-11-24T02:11:14.245Z,-1.60
2022-11-24T02:16:16.048Z,-1.24
2022-11-24T02:21:18.334Z,-1.09
2022-11-24T02:26:43.057Z,-1.24
2022-11-24T02:31:49.853Z,-1.38
2022-11-24T02:36:51.543Z,-1.48
2022-11-24T02:42:04.973Z,-1.35
2022-11-24T02:47:12.335Z,-1.24
2022-11-24T02:52:14.047Z,-1.32
2022-11-24T02:57:15.813Z,-1.31
2022-11-24T03:02:17.596Z,-1.49
2022-11-24T03:07:19.472Z,-1.56
2022-11-24T03:12:21.236Z,-1.53
2022-11-24T03:17:22.969Z,-1.46
2022-11-24T03:22:24.686Z,-1.35
2022-11-24T03:27:26.731Z,-1.30
2022-11-24T03:32:28.503Z,-1.58
2022-11-24T03:37:30.564Z,-1.36
2022-11-24T03:42:32.308Z,-1.50
2022-11-24T03:47:34.160Z,-1.76
2022-11-24T03:52:35.898Z,-1.50
2022-11-24T03:57:37.614Z,-1.55
2022-11-24T04:02:39.408Z,-1.54
2022-11-24T04:07:41.245Z,-1.64
2022-11-24T04:12:45.854Z,-1.51
2022-11-24T04:17:49.120Z,-1.55
2022-11-24T04:22:51.909Z,-1.62
2022-11-24T04:27:55.286Z,-1.55
2022-11-24T04:32:57.375Z,-1.61
2022-11-24T04:38:02.976Z,-1.35
2022-11-24T04:43:04.828Z,-1.18
2022-11-24T04:48:06.549Z,-1.47
2022-11-24T04:53:10.214Z,-1.57
2022-11-24T04:58:11.876Z,-1.70
2022-11-24T05:03:15.554Z,-0.98
2022-11-24T05:08:33.998Z,-1.29
2022-11-24T05:13:35.742Z,-1.35
2022-11-24T05:18:38.052Z,-1.12
2022-11-24T05:23:39.813Z,-1.00
2022-11-24T05:28:41.583Z,-1.18
2022-11-24T05:33:43.336Z,-1.02
2022-11-24T05:38:45.090Z,-1.07
2022-11-24T05:43:46.713Z,-0.96
2022-11-24T05:48:48.601Z,-1.02
2022-11-24T05:53:50.299Z,-0.89
2022-11-24T05:58:51.918Z,-0.83
2022-11-24T06:03:53.502Z,-0.87
2022-11-24T06:08:55.127Z,-0.88
2022-11-24T06:13:56.961Z,-0.62
2022-11-24T06:19:00.026Z,-0.43
2022-11-24T06:24:02.464Z,-0.55
2022-11-24T06:29:04.308Z,-0.47
2022-11-24T06:34:11.584Z,-0.22
2022-11-24T06:39:13.209Z,-0.34
2022-11-24T06:44:14.831Z,-0.46
2022-11-24T06:49:16.494Z,-0.45
2022-11-24T06:54:21.449Z,-0.38
2022-11-24T06:59:23.078Z,-0.29
2022-11-24T07:04:24.711Z,-0.07
2022-11-24T07:09:26.319Z,-0.07
2022-11-24T07:14:27.927Z,0.03
2022-11-24T07:19:29.630Z,0.06
2022-11-24T07:24:31.409Z,0.24
2022-11-24T07:29:33.209Z,0.43
2022-11-24T07:34:35.075Z,0.25
2022-11-24T07:39:36.935Z,0.35
2022-11-24T07:44:38.660Z,0.38
2022-11-24T07:49:40.290Z,0.44
2022-11-24T07:54:41.884Z,0.58
2022-11-24T07:59:43.500Z,0.73
2022-11-24T08:04:45.307Z,0.88
2022-11-24T08:09:46.982Z,0.87
2022-11-24T08:14:50.404Z,1.12
2022-11-24T08:19:52.015Z,1.12
2022-11-24T08:24:53.892Z,1.33
2022-11-24T08:29:55.562Z,1.42
2022-11-24T08:35:08.557Z,1.49
2022-11-24T08:40:16.132Z,1.71
2022-11-24T08:45:22.463Z,1.82
2022-11-24T08:50:26.065Z,1.64
2022-11-24T08:55:27.711Z,1.76
2022-11-24T09:00:29.351Z,1.81
2022-11-24T09:10:54.750Z,1.89
2022-11-24T09:15:56.446Z,1.86
2022-11-24T09:21:10.150Z,1.88
2022-11-24T09:26:17.605Z,1.88
2022-11-24T09:31:26.113Z,2.14
2022-11-24T09:36:28.543Z,2.12
2022-11-24T09:41:30.126Z,2.26
2022-11-24T09:46:52.526Z,2.51
2022-11-24T09:51:56.455Z,2.56
2022-11-24T09:57:00.747Z,2.84
2022-11-24T10:02:02.681Z,2.96
2022-11-24T10:07:30.135Z,2.65
2022-11-24T10:13:12.209Z,2.73
2022-11-24T10:18:27.806Z,2.57
2022-11-24T10:23:41.420Z,2.88
2022-11-24T10:28:55.302Z,3.03
2022-11-24T10:34:01.953Z,2.87
2022-11-24T10:39:12.608Z,3.27
2022-11-24T10:44:15.444Z,3.20
2022-11-24T10:49:26.950Z,3.30
2022-11-24T10:54:28.976Z,3.28
2022-11-24T10:59:39.336Z,3.39
2022-11-24T11:04:41.209Z,3.54
2022-11-24T11:09:42.823Z,3.35
2022-11-24T11:14:47.615Z,3.69
2022-11-24T11:19:56.974Z,3.47
2022-11-24T11:25:22.832Z,3.75
2022-11-24T11:35:50.154Z,3.84
2022-11-24T11:40:52.252Z,3.84
2022-11-24T11:46:17.790Z,3.92
2022-11-24T11:51:23.904Z,4.04
2022-11-24T11:56:30.321Z,4.19
2022-11-24T12:01:38.456Z,4.22
2022-11-24T12:06:51.818Z,4.14
2022-11-24T12:12:21.189Z,4.15
2022-11-24T12:17:34.790Z,4.13
2022-11-24T12:22:52.805Z,4.60
2022-11-24T12:28:11.422Z,4.65
2022-11-24T12:33:27.968Z,4.70
2022-11-24T12:38:48.162Z,4.69
2022-11-24T12:43:56.490Z,5.03
2022-11-24T12:49:24.298Z,4.71
2022-11-24T12:54:35.328Z,4.74
2022-11-24T12:59:46.657Z,4.93
2022-11-24T13:05:01.923Z,4.89
2022-11-24T13:10:46.904Z,5.12
2022-11-24T13:16:07.088Z,5.06
2022-11-24T13:21:36.614Z,5.16
2022-11-24T13:26:41.491Z,5.18
2022-11-24T13:31:43.689Z,5.30
2022-11-24T13:36:53.625Z,5.45
2022-11-24T13:41:55.194Z,5.29
2022-11-24T13:47:26.782Z,5.41
2022-11-24T13:52:40.502Z,5.30
2022-11-24T13:58:18.447Z,5.14
2022-11-24T14:03:26.407Z,5.12
2022-11-24T14:08:34.965Z,5.05
2022-11-24T14:13:36.976Z,5.17
2022-11-24T14:18:44.028Z,5.00
2022-11-24T14:23:47.199Z,4.92
2022-11-24T14:28:49.655Z,5.01
2022-11-24T14:34:23.461Z,5.00
2022-11-24T14:39:26.723Z,5.01
2022-11-24T14:44:32.223Z,4.89
2022-11-24T14:49:37.590Z,5.09
2022-11-24T14:55:21.252Z,4.96
2022-11-24T15:00:27.719Z,4.79
2022-11-24T15:05:52.866Z,4.69
2022-11-24T15:11:00.407Z,4.71
2022-11-24T15:16:06.538Z,4.77
2022-11-24T15:21:11.793Z,4.74
2022-11-24T15:26:17.335Z,4.72
2022-11-24T15:31:19.008Z,4.68
2022-11-24T15:36:20.814Z,4.70
2022-11-24T15:41:32.337Z,4.70
2022-11-24T15:46:39.730Z,4.78
2022-11-24T15:51:44.732Z,5.00
2022-11-24T15:56:47.131Z,4.76
2022-11-24T16:01:50.569Z,4.76
2022-11-24T16:06:52.302Z,4.64
2022-11-24T16:11:54.098Z,4.59
2022-11-24T16:16:56.133Z,4.54
2022-11-24T16:21:57.890Z,4.55
2022-11-24T16:26:59.629Z,4.47
2022-11-24T16:32:01.417Z,4.32
2022-11-24T16:37:03.164Z,4.23
2022-11-24T16:42:05.145Z,4.10
2022-11-24T16:47:07.102Z,4.11
2022-11-24T16:52:08.892Z,4.15
2022-11-24T16:57:14.976Z,4.01
2022-11-24T17:02:17.232Z,4.08
2022-11-24T17:07:20.657Z,4.16
2022-11-24T17:12:22.532Z,4.26
2022-11-24T17:17:24.199Z,4.25
2022-11-24T17:22:25.895Z,4.21
2022-11-24T17:27:27.612Z,4.20
2022-11-24T17:32:29.469Z,4.18
2022-11-24T17:37:32.187Z,4.53
2022-11-24T17:42:34.342Z,4.47
2022-11-24T17:47:36.084Z,4.26
2022-11-24T17:52:37.719Z,4.55
2022-11-24T17:57:39.466Z,4.37
2022-11-24T18:02:41.341Z,4.04
2022-11-24T18:07:43.261Z,4.00
2022-11-24T18:12:44.927Z,3.93
2022-11-24T18:17:46.725Z,4.11
2022-11-24T18:28:10.120Z,3.86
2022-11-24T18:33:11.792Z,3.78
2022-11-24T18:38:13.572Z,3.86
2022-11-24T18:43:15.392Z,3.63
2022-11-24T18:48:17.059Z,3.69
2022-11-24T18:53:20.908Z,3.68
2022-11-24T18:58:23.298Z,4.22
2022-11-24T19:03:25.073Z,4.30
2022-11-24T19:08:27.107Z,4.21
2022-11-24T19:13:28.880Z,4.16
2022-11-24T19:18:31.163Z,4.43
2022-11-24T19:23:33.060Z,4.30
2022-11-24T19:28:34.846Z,4.18
2022-11-24T19:33:36.816Z,4.13
2022-11-24T19:38:39.488Z,4.18
2022-11-24T19:43:41.847Z,4.09
2022-11-24T19:48:54.628Z,4.04
2022-11-24T19:53:56.762Z,4.01
2022-11-24T19:58:58.775Z,4.04
2022-11-24T20:04:05.864Z,3.99
2022-11-24T20:09:08.859Z,4.12
2022-11-24T20:14:15.468Z,4.00
2022-11-24T20:19:18.548Z,4.09
2022-11-24T20:24:22.535Z,4.36
2022-11-24T20:29:24.368Z,4.45
2022-11-24T20:34:27.321Z,4.27
2022-11-24T20:39:29.272Z,4.12
2022-11-24T20:44:31.450Z,4.12
2022-11-24T20:49:33.257Z,4.21
2022-11-24T20:54:35.256Z,4.21
2022-11-24T20:59:37.032Z,4.07
2022-11-24T21:04:38.774Z,4.36
2022-11-24T21:09:40.508Z,4.11
2022-11-24T21:14:42.329Z,4.10
2022-11-24T21:19:44.118Z,4.08
2022-11-24T21:24:45.845Z,4.02
2022-11-24T21:29:47.552Z,4.01
2022-11-24T21:34:49.520Z,3.99
2022-11-24T21:39:51.181Z,4.07
2022-11-24T21:44:52.862Z,4.35
2022-11-24T21:49:54.959Z,4.17
2022-11-24T21:54:56.726Z,4.26
2022-11-24T21:59:58.478Z,4.21
2022-11-24T22:05:00.144Z,4.10
2022-11-24T22:10:01.837Z,4.07
2022-11-24T22:15:03.667Z,4.06
2022-11-24T22:20:06.071Z,4.00
2022-11-24T22:25:08.192Z,4.11
2022-11-24T22:30:10.618Z,4.38
2022-11-24T22:35:12.318Z,4.45
2022-11-24T22:40:14.019Z,4.26
2022-11-24T22:45:15.787Z,4.16
2022-11-24T22:50:17.560Z,4.11
2022-11-24T22:55:19.341Z,4.22
2022-11-24T23:00:21.100Z,4.20
2022-11-24T23:05:22.777Z,4.22
2022-11-24T23:10:24.436Z,4.26
2022-11-24T23:15:26.108Z,4.13
2022-11-24T23:20:27.751Z,4.47
2022-11-24T23:25:29.620Z,4.45
2022-11-24T23:30:31.256Z,4.35
2022-11-24T23:35:33.072Z,4.17
2022-11-24T23:40:34.775Z,4.28
2022-11-24T23:45:36.568Z,4.12
2022-11-24T23:50:38.195Z,4.12
2022-11-24T23:55:39.877Z,4.18
